createdAt,value
2022-10-13T05:38:56.845Z,19.12
2022-10-13T05:41:59.771Z,28.42
2022-10-13T05:45:02.908Z,21.73
2022-10-13T05:48:06.146Z,25.27
2022-10-13T05:51:19.287Z,23.05
2022-10-13T05:54:35.213Z,26.42
2022-10-13T05:57:41.490Z,21.70
2022-10-13T06:00:44.906Z,22.30
2022-10-13T06:03:49.910Z,18.37
2022-10-13T06:06:52.777Z,27.85
2022-10-13T06:09:57.324Z,30.33
2022-10-13T06:12:59.951Z,24.15
2022-10-13T06:16:02.977Z,26.58
2022-10-13T06:19:06.127Z,17.90
2022-10-13T06:22:09.172Z,18.02
2022-10-13T06:25:13.242Z,16.25
2022-10-13T06:28:19.053Z,17.98
2022-10-13T06:31:21.900Z,19.45
2022-10-13T06:34:24.865Z,15.52
2022-10-13T06:37:27.722Z,21.62
2022-10-13T06:40:33.448Z,24.63
2022-10-13T06:43:40.482Z,18.15
2022-10-13T06:46:45.653Z,16.87
2022-10-13T06:49:48.266Z,18.45
2022-10-13T06:52:52.337Z,20.92
2022-10-13T06:56:04.867Z,18.87
2022-10-13T06:59:08.487Z,23.00
2022-10-13T07:02:12.200Z,24.23
2022-10-13T07:05:15.206Z,30.45
2022-10-13T07:08:18.043Z,22.92
2022-10-13T07:11:21.515Z,21.95
2022-10-13T07:14:44.466Z,21.92
2022-10-13T07:17:47.506Z,17.30
2022-10-13T07:20:50.202Z,17.20
2022-10-13T07:23:53.213Z,16.50
2022-10-13T07:26:55.862Z,18.98
2022-10-13T07:29:58.798Z,17.67
2022-10-13T07:33:02.243Z,21.98
2022-10-13T07:36:05.895Z,17.50
2022-10-13T09:15:21.646Z,6.10
2022-10-13T09:18:31.914Z,11.30
2022-10-13T09:21:34.655Z,14.13
2022-10-13T09:24:39.359Z,6.65
2022-10-13T09:27:52.505Z,8.60
2022-10-13T09:31:11.598Z,11.12
2022-10-13T09:34:19.433Z,8.27
2022-10-13T09:37:26.494Z,9.30
2022-10-13T09:40:32.445Z,6.82
2022-10-13T09:43:47.285Z,6.03
2022-10-13T09:46:55.580Z,9.23
2022-10-13T09:50:06.596Z,8.27
2022-10-13T09:53:26.554Z,9.43
2022-10-13T09:56:43.598Z,6.43
2022-10-13T10:00:04.719Z,11.45
2022-10-13T10:03:23.854Z,5.68
2022-10-13T10:06:27.944Z,9.60
2022-10-13T10:09:41.510Z,9.18
2022-10-13T10:12:45.290Z,15.88
2022-10-13T10:15:47.854Z,9.60
2022-10-13T10:19:00.174Z,9.70
2022-10-13T10:22:15.806Z,9.48
2022-10-13T10:25:47.110Z,10.73
2022-10-13T10:29:01.930Z,11.18
2022-10-13T10:32:27.854Z,6.40
2022-10-13T10:35:49.810Z,8.23
2022-10-13T10:39:03.014Z,10.23
2022-10-13T10:42:42.393Z,7.75
2022-10-13T10:45:48.647Z,10.10
2022-10-13T10:48:57.206Z,11.40
2022-10-13T10:52:03.606Z,10.32
2022-10-13T10:55:12.340Z,10.38
2022-10-13T10:58:23.390Z,7.12
2022-10-13T11:01:54.132Z,9.00
2022-10-13T11:05:05.271Z,12.70
2022-10-13T11:08:47.066Z,7.62
2022-10-13T11:11:50.331Z,9.18
2022-10-13T11:15:11.514Z,11.12
2022-10-13T11:18:53.083Z,10.18
2022-10-13T11:21:59.764Z,8.77
2022-10-13T11:25:54.057Z,11.50
2022-10-13T11:28:57.308Z,20.98
2022-10-13T11:32:00.311Z,8.68
2022-10-13T11:35:06.048Z,8.95
2022-10-13T11:38:23.683Z,14.63
2022-10-13T11:41:32.114Z,8.32
2022-10-13T11:44:41.035Z,11.40
2022-10-13T11:47:43.610Z,8.77
2022-10-13T11:51:26.033Z,7.40
2022-10-13T11:54:57.640Z,8.02
2022-10-13T11:58:15.632Z,14.15
2022-10-13T12:01:19.571Z,10.98
2022-10-13T12:04:24.272Z,11.55
2022-10-13T12:07:33.392Z,11.50
2022-10-13T12:10:38.128Z,13.77
2022-10-13T12:13:47.471Z,14.30
2022-10-13T12:20:04.458Z,11.65
2022-10-13T12:23:17.106Z,8.13
2022-10-13T12:26:24.394Z,6.65
2022-10-13T12:29:31.164Z,9.68
2022-10-13T12:32:36.735Z,12.27
2022-10-13T12:35:39.704Z,11.43
2022-10-13T12:38:47.276Z,6.57
2022-10-13T12:41:55.218Z,11.38
2022-10-13T12:45:00.369Z,5.47
2022-10-13T12:48:03.461Z,8.20
2022-10-13T12:51:20.998Z,7.35
2022-10-13T12:54:29.867Z,11.65
2022-10-13T12:57:38.684Z,7.62
2022-10-13T13:00:42.182Z,8.52
2022-10-13T13:03:44.981Z,8.57
2022-10-13T13:07:05.582Z,11.05
2022-10-13T13:10:08.239Z,7.57
2022-10-13T13:13:15.280Z,10.80
2022-10-13T13:16:21.181Z,8.27
2022-10-13T13:19:24.433Z,18.17
2022-10-13T13:22:27.976Z,10.05
2022-10-13T13:25:30.923Z,14.57
2022-10-13T13:28:37.283Z,8.35
2022-10-13T13:31:40.305Z,8.43
2022-10-13T13:34:43.653Z,9.60
2022-10-13T13:37:53.517Z,9.35
2022-10-13T13:40:58.982Z,8.13
2022-10-13T13:44:04.576Z,8.10
2022-10-13T13:47:25.006Z,5.90
2022-10-13T13:50:37.759Z,11.57
2022-10-13T16:17:38.801Z,15.20
2022-10-13T16:20:45.355Z,13.85
2022-10-13T16:23:48.738Z,11.60
2022-10-13T16:26:51.672Z,12.63
2022-10-13T16:29:54.375Z,25.00
2022-10-13T16:32:58.197Z,24.42
2022-10-13T16:36:05.566Z,34.35
2022-10-13T16:39:08.553Z,28.05
2022-10-13T16:42:14.732Z,19.37
2022-10-13T16:45:17.646Z,14.48
2022-10-13T16:48:20.311Z,19.10
2022-10-13T16:51:25.080Z,31.37
2022-10-13T16:54:27.954Z,18.50
2022-10-13T16:57:31.466Z,17.27
2022-10-13T17:00:36.208Z,12.60
2022-10-13T17:03:39.758Z,21.10
2022-10-13T17:06:42.425Z,22.98
2022-10-13T17:09:45.460Z,27.13
2022-10-13T17:12:48.993Z,16.70
2022-10-13T17:15:53.504Z,22.17
2022-10-13T17:18:57.141Z,42.75
2022-10-13T17:22:05.574Z,40.20
2022-10-13T17:25:09.188Z,59.15
2022-10-13T17:28:12.289Z,50.85
2022-10-13T17:31:18.187Z,56.17
2022-10-13T17:34:21.615Z,58.70
2022-10-13T17:37:27.163Z,53.67
2022-10-13T17:40:33.844Z,53.22
2022-10-13T17:43:38.442Z,41.10
2022-10-13T17:46:41.614Z,34.20
2022-10-13T17:49:48.770Z,28.92
2022-10-13T17:53:12.898Z,37.67
2022-10-13T17:56:18.690Z,47.25
2022-10-13T17:59:41.743Z,85.97
2022-10-13T18:02:44.607Z,74.60
2022-10-13T18:06:08.162Z,63.53
2022-10-13T18:09:19.713Z,50.83
2022-10-13T18:12:22.784Z,37.80
2022-10-13T18:15:25.483Z,38.55
2022-10-13T18:18:28.435Z,30.90
2022-10-13T18:21:31.176Z,35.00
2022-10-13T18:24:34.158Z,30.08
2022-10-13T18:27:36.773Z,19.60
2022-10-13T18:30:39.710Z,20.45
2022-10-13T18:33:42.580Z,18.55
2022-10-13T18:36:51.299Z,21.12
2022-10-13T18:39:54.708Z,19.58
2022-10-13T18:43:35.607Z,14.60
2022-10-13T18:46:39.221Z,21.17
2022-10-13T18:49:42.148Z,22.10
2022-10-13T18:53:04.999Z,16.80
2022-10-13T18:56:12.070Z,18.23
2022-10-13T18:59:15.103Z,22.20
2022-10-13T19:02:18.037Z,15.55
2022-10-13T19:05:28.598Z,16.60
2022-10-13T19:08:33.761Z,13.70
2022-10-13T19:11:37.409Z,14.98
2022-10-13T19:14:40.853Z,14.00
2022-10-13T19:17:43.602Z,13.57
2022-10-13T19:21:06.835Z,16.08
2022-10-13T19:24:10.766Z,16.20
2022-10-13T19:27:13.643Z,12.98
2022-10-13T19:30:18.312Z,16.02
2022-10-13T19:33:21.698Z,17.60
2022-10-13T19:36:40.052Z,15.55
2022-10-13T19:39:43.020Z,14.27
2022-10-13T19:42:45.681Z,16.10
2022-10-13T19:45:56.239Z,16.30
2022-10-13T19:49:03.376Z,20.12
2022-10-13T19:52:06.392Z,15.57
2022-10-13T19:55:09.802Z,14.95
2022-10-13T19:58:16.094Z,20.33
2022-10-13T20:01:20.007Z,20.77
2022-10-13T20:04:23.108Z,22.30
2022-10-13T20:07:26.428Z,24.33
2022-10-13T20:10:30.026Z,20.10
2022-10-13T20:13:32.666Z,15.50
2022-10-13T20:16:37.876Z,22.58
2022-10-13T20:19:40.835Z,16.87
2022-10-13T20:22:45.223Z,18.85
2022-10-13T20:25:47.787Z,19.48
2022-10-13T20:28:52.519Z,16.40
2022-10-13T20:31:55.168Z,21.80
2022-10-13T20:34:58.017Z,23.38
2022-10-13T20:38:00.641Z,24.83
2022-10-13T20:41:18.693Z,24.00
2022-10-13T20:44:21.531Z,21.35
2022-10-13T20:47:24.495Z,23.73
2022-10-13T20:50:27.114Z,23.98
2022-10-13T20:53:30.662Z,20.25
2022-10-13T20:56:33.934Z,18.85
2022-10-13T20:59:37.394Z,23.60
2022-10-13T21:02:40.579Z,21.67
2022-10-13T21:06:24.986Z,17.87
2022-10-13T21:09:27.611Z,25.88
2022-10-13T21:12:30.502Z,28.38
2022-10-13T21:15:38.154Z,19.30
2022-10-13T21:18:44.063Z,29.35
2022-10-13T21:21:46.763Z,20.83
2022-10-13T21:24:49.741Z,19.75
2022-10-13T21:27:52.747Z,20.88
2022-10-13T21:31:00.690Z,20.10
2022-10-13T21:34:04.249Z,24.95
2022-10-13T21:37:07.181Z,21.12
2022-10-13T21:40:10.144Z,22.50
2022-10-13T21:43:12.982Z,19.12
2022-10-13T21:46:27.477Z,23.55
2022-10-13T21:49:30.833Z,26.27
2022-10-13T21:52:36.335Z,19.10
2022-10-13T21:55:39.302Z,22.67
2022-10-13T21:58:42.031Z,20.65
2022-10-13T22:01:45.070Z,21.15
2022-10-13T22:04:49.246Z,22.13
2022-10-13T22:07:53.449Z,24.00
2022-10-13T22:10:59.448Z,21.80
2022-10-13T22:14:02.154Z,25.15
2022-10-13T22:17:07.817Z,26.05
2022-10-13T22:20:10.385Z,22.13
2022-10-13T22:23:14.190Z,23.45
2022-10-13T22:26:19.451Z,21.48
2022-10-13T22:29:24.118Z,21.87
2022-10-13T22:32:26.710Z,27.75
2022-10-13T22:35:29.528Z,27.02
2022-10-13T22:38:32.112Z,23.77
2022-10-13T22:41:38.043Z,27.35
2022-10-13T22:44:40.685Z,21.42
2022-10-13T22:47:43.574Z,33.00
2022-10-13T22:50:46.387Z,27.08
2022-10-13T22:53:50.323Z,29.90
2022-10-13T22:56:52.940Z,26.02
2022-10-13T22:59:55.795Z,24.95
2022-10-13T23:02:58.325Z,25.23
2022-10-13T23:06:01.189Z,21.48
2022-10-13T23:09:07.739Z,25.40
2022-10-13T23:12:11.033Z,28.02
2022-10-13T23:15:33.534Z,24.05
2022-10-13T23:18:36.365Z,30.05
2022-10-13T23:21:39.000Z,25.52
2022-10-13T23:24:42.459Z,28.85
2022-10-13T23:27:45.078Z,25.90
2022-10-13T23:30:47.973Z,33.28
2022-10-13T23:33:51.618Z,29.42
2022-10-13T23:36:58.394Z,29.80
2022-10-13T23:40:01.064Z,26.98
2022-10-13T23:43:04.367Z,29.48
